sensor_id;sensor_type;location;lat;lon;timestamp;P1;durP1;ratioP1;P2;durP2;ratioP2
4466;SDS011;2246;42.664;23.278;2023-02-15T00:01:49;53.63;;;24.13;;
4466;SDS011;2246;42.664;23.278;2023-02-15T00:04:16;57.22;;;24.88;;
4466;SDS011;2246;42.664;23.278;2023-02-15T00:06:43;49.70;;;21.60;;
4466;SDS011;2246;42.664;23.278;2023-02-15T00:09:09;52.50;;;24.15;;
4466;SDS011;2246;42.664;23.278;2023-02-15T00:11:35;54.08;;;23.38;;
4466;SDS011;2246;42.664;23.278;2023-02-15T00:16:33;51.00;;;22.83;;
4466;SDS011;2246;42.664;23.278;2023-02-15T00:19:00;54.67;;;24.13;;
4466;SDS011;2246;42.664;23.278;2023-02-15T00:21:27;53.50;;;24.40;;
4466;SDS011;2246;42.664;23.278;2023-02-15T00:23:54;51.85;;;24.35;;
4466;SDS011;2246;42.664;23.278;2023-02-15T00:26:20;48.83;;;22.10;;
4466;SDS011;2246;42.664;23.278;2023-02-15T00:28:46;43.67;;;20.27;;
4466;SDS011;2246;42.664;23.278;2023-02-15T00:31:12;55.58;;;22.05;;
4466;SDS011;2246;42.664;23.278;2023-02-15T00:33:38;52.45;;;23.27;;
4466;SDS011;2246;42.664;23.278;2023-02-15T00:36:05;54.47;;;23.08;;
4466;SDS011;2246;42.664;23.278;2023-02-15T00:38:32;45.90;;;22.00;;
4466;SDS011;2246;42.664;23.278;2023-02-15T00:40:59;51.65;;;23.08;;
4466;SDS011;2246;42.664;23.278;2023-02-15T00:43:26;54.23;;;23.27;;
4466;SDS011;2246;42.664;23.278;2023-02-15T00:45:52;52.92;;;22.48;;
4466;SDS011;2246;42.664;23.278;2023-02-15T00:48:18;51.42;;;21.65;;
4466;SDS011;2246;42.664;23.278;2023-02-15T00:50:45;52.85;;;22.23;;
4466;SDS011;2246;42.664;23.278;2023-02-15T00:53:11;49.22;;;22.35;;
4466;SDS011;2246;42.664;23.278;2023-02-15T00:55:37;50.28;;;22.50;;
4466;SDS011;2246;42.664;23.278;2023-02-15T00:58:05;49.08;;;22.23;;
4466;SDS011;2246;42.664;23.278;2023-02-15T01:00:31;55.22;;;23.92;;
4466;SDS011;2246;42.664;23.278;2023-02-15T01:02:58;48.22;;;22.63;;
4466;SDS011;2246;42.664;23.278;2023-02-15T01:05:24;47.38;;;22.35;;
4466;SDS011;2246;42.664;23.278;2023-02-15T01:07:50;49.92;;;22.08;;
4466;SDS011;2246;42.664;23.278;2023-02-15T01:10:16;53.20;;;23.77;;
4466;SDS011;2246;42.664;23.278;2023-02-15T01:12:42;44.42;;;21.08;;
4466;SDS011;2246;42.664;23.278;2023-02-15T01:15:08;49.97;;;22.65;;
4466;SDS011;2246;42.664;23.278;2023-02-15T01:17:34;54.00;;;23.60;;
4466;SDS011;2246;42.664;23.278;2023-02-15T01:20:01;47.75;;;21.08;;
4466;SDS011;2246;42.664;23.278;2023-02-15T01:22:28;51.95;;;23.55;;
4466;SDS011;2246;42.664;23.278;2023-02-15T01:24:54;45.78;;;21.52;;
4466;SDS011;2246;42.664;23.278;2023-02-15T01:27:20;49.55;;;22.63;;
4466;SDS011;2246;42.664;23.278;2023-02-15T01:29:46;51.47;;;23.60;;
4466;SDS011;2246;42.664;23.278;2023-02-15T01:32:12;56.17;;;23.10;;
4466;SDS011;2246;42.664;23.278;2023-02-15T01:34:38;50.20;;;22.98;;
4466;SDS011;2246;42.664;23.278;2023-02-15T01:37:04;45.78;;;22.67;;
4466;SDS011;2246;42.664;23.278;2023-02-15T01:39:30;47.22;;;22.20;;
4466;SDS011;2246;42.664;23.278;2023-02-15T01:41:56;46.13;;;21.42;;
4466;SDS011;2246;42.664;23.278;2023-02-15T01:47:07;52.50;;;23.38;;
4466;SDS011;2246;42.664;23.278;2023-02-15T01:49:34;45.40;;;20.67;;
4466;SDS011;2246;42.664;23.278;2023-02-15T01:52:01;44.75;;;20.83;;
4466;SDS011;2246;42.664;23.278;2023-02-15T01:54:28;42.53;;;19.70;;
4466;SDS011;2246;42.664;23.278;2023-02-15T01:59:21;50.45;;;22.38;;
4466;SDS011;2246;42.664;23.278;2023-02-15T02:01:49;52.17;;;23.10;;
4466;SDS011;2246;42.664;23.278;2023-02-15T02:04:23;56.90;;;24.97;;
4466;SDS011;2246;42.664;23.278;2023-02-15T02:06:51;45.35;;;20.88;;
4466;SDS011;2246;42.664;23.278;2023-02-15T02:09:17;42.60;;;20.98;;
4466;SDS011;2246;42.664;23.278;2023-02-15T02:11:44;49.45;;;20.15;;
4466;SDS011;2246;42.664;23.278;2023-02-15T02:14:12;45.42;;;19.75;;
4466;SDS011;2246;42.664;23.278;2023-02-15T02:24:14;46.80;;;20.63;;
4466;SDS011;2246;42.664;23.278;2023-02-15T02:26:48;47.25;;;20.83;;
4466;SDS011;2246;42.664;23.278;2023-02-15T02:34:55;42.08;;;19.98;;
4466;SDS011;2246;42.664;23.278;2023-02-15T02:40:00;43.10;;;19.42;;
4466;SDS011;2246;42.664;23.278;2023-02-15T02:42:43;44.83;;;19.48;;
4466;SDS011;2246;42.664;23.278;2023-02-15T02:45:20;52.17;;;20.98;;
4466;SDS011;2246;42.664;23.278;2023-02-15T02:47:54;45.00;;;19.10;;
4466;SDS011;2246;42.664;23.278;2023-02-15T02:50:22;42.58;;;20.00;;
4466;SDS011;2246;42.664;23.278;2023-02-15T02:52:49;43.88;;;19.90;;
4466;SDS011;2246;42.664;23.278;2023-02-15T02:55:18;44.50;;;20.95;;
4466;SDS011;2246;42.664;23.278;2023-02-15T03:00:14;42.53;;;19.88;;
4466;SDS011;2246;42.664;23.278;2023-02-15T03:02:41;39.75;;;18.33;;
4466;SDS011;2246;42.664;23.278;2023-02-15T03:05:11;42.65;;;19.92;;
4466;SDS011;2246;42.664;23.278;2023-02-15T03:07:38;39.67;;;18.27;;
4466;SDS011;2246;42.664;23.278;2023-02-15T03:10:05;42.60;;;19.90;;
4466;SDS011;2246;42.664;23.278;2023-02-15T03:12:33;42.97;;;18.42;;
4466;SDS011;2246;42.664;23.278;2023-02-15T03:15:04;40.35;;;18.42;;
4466;SDS011;2246;42.664;23.278;2023-02-15T03:17:35;44.63;;;19.65;;
4466;SDS011;2246;42.664;23.278;2023-02-15T03:20:03;37.42;;;18.33;;
4466;SDS011;2246;42.664;23.278;2023-02-15T03:27:31;39.65;;;18.17;;
4466;SDS011;2246;42.664;23.278;2023-02-15T03:29:58;39.50;;;19.52;;
4466;SDS011;2246;42.664;23.278;2023-02-15T03:32:24;34.67;;;17.48;;
4466;SDS011;2246;42.664;23.278;2023-02-15T03:34:51;35.80;;;17.83;;
4466;SDS011;2246;42.664;23.278;2023-02-15T03:37:20;39.83;;;19.25;;
4466;SDS011;2246;42.664;23.278;2023-02-15T03:39:51;39.22;;;16.42;;
4466;SDS011;2246;42.664;23.278;2023-02-15T03:42:25;40.90;;;18.52;;
4466;SDS011;2246;42.664;23.278;2023-02-15T03:47:25;40.83;;;18.45;;
4466;SDS011;2246;42.664;23.278;2023-02-15T03:52:19;42.15;;;18.10;;
4466;SDS011;2246;42.664;23.278;2023-02-15T03:54:46;42.83;;;18.65;;
4466;SDS011;2246;42.664;23.278;2023-02-15T03:57:16;36.45;;;16.77;;
4466;SDS011;2246;42.664;23.278;2023-02-15T04:00:09;41.33;;;17.90;;
4466;SDS011;2246;42.664;23.278;2023-02-15T04:02:59;42.28;;;19.20;;
4466;SDS011;2246;42.664;23.278;2023-02-15T04:05:29;41.95;;;19.52;;
4466;SDS011;2246;42.664;23.278;2023-02-15T04:07:55;39.35;;;17.83;;
4466;SDS011;2246;42.664;23.278;2023-02-15T04:10:21;40.50;;;18.40;;
4466;SDS011;2246;42.664;23.278;2023-02-15T04:13:06;39.92;;;18.58;;
4466;SDS011;2246;42.664;23.278;2023-02-15T04:15:32;35.13;;;16.58;;
4466;SDS011;2246;42.664;23.278;2023-02-15T04:18:16;42.53;;;19.98;;
4466;SDS011;2246;42.664;23.278;2023-02-15T04:20:43;42.20;;;18.63;;
4466;SDS011;2246;42.664;23.278;2023-02-15T04:23:28;37.78;;;18.45;;
4466;SDS011;2246;42.664;23.278;2023-02-15T04:26:13;42.60;;;18.65;;
4466;SDS011;2246;42.664;23.278;2023-02-15T04:28:39;49.70;;;20.48;;
4466;SDS011;2246;42.664;23.278;2023-02-15T04:31:05;45.03;;;20.25;;
4466;SDS011;2246;42.664;23.278;2023-02-15T04:33:31;49.35;;;21.30;;
4466;SDS011;2246;42.664;23.278;2023-02-15T04:35:57;39.75;;;18.70;;
4466;SDS011;2246;42.664;23.278;2023-02-15T04:38:23;40.85;;;19.95;;
4466;SDS011;2246;42.664;23.278;2023-02-15T04:40:50;42.40;;;20.00;;
4466;SDS011;2246;42.664;23.278;2023-02-15T04:43:17;43.40;;;21.00;;
4466;SDS011;2246;42.664;23.278;2023-02-15T04:45:47;48.15;;;21.58;;
4466;SDS011;2246;42.664;23.278;2023-02-15T04:48:13;44.00;;;19.17;;
4466;SDS011;2246;42.664;23.278;2023-02-15T04:50:39;45.40;;;19.83;;
4466;SDS011;2246;42.664;23.278;2023-02-15T04:53:05;41.47;;;18.85;;
4466;SDS011;2246;42.664;23.278;2023-02-15T04:55:31;42.92;;;20.35;;
4466;SDS011;2246;42.664;23.278;2023-02-15T04:57:58;43.90;;;19.77;;
4466;SDS011;2246;42.664;23.278;2023-02-15T05:00:24;40.63;;;18.83;;
4466;SDS011;2246;42.664;23.278;2023-02-15T05:02:50;39.22;;;18.45;;
4466;SDS011;2246;42.664;23.278;2023-02-15T05:05:16;40.80;;;19.65;;
4466;SDS011;2246;42.664;23.278;2023-02-15T05:07:42;41.60;;;19.02;;
4466;SDS011;2246;42.664;23.278;2023-02-15T05:10:09;44.70;;;19.45;;
4466;SDS011;2246;42.664;23.278;2023-02-15T05:12:35;43.70;;;18.83;;
4466;SDS011;2246;42.664;23.278;2023-02-15T05:15:01;45.08;;;20.45;;
4466;SDS011;2246;42.664;23.278;2023-02-15T05:17:27;41.10;;;19.00;;
4466;SDS011;2246;42.664;23.278;2023-02-15T05:19:53;47.90;;;20.40;;
4466;SDS011;2246;42.664;23.278;2023-02-15T05:22:19;43.20;;;20.60;;
4466;SDS011;2246;42.664;23.278;2023-02-15T05:24:45;45.65;;;19.98;;
4466;SDS011;2246;42.664;23.278;2023-02-15T05:27:29;43.65;;;19.50;;
4466;SDS011;2246;42.664;23.278;2023-02-15T05:30:14;36.13;;;17.98;;
4466;SDS011;2246;42.664;23.278;2023-02-15T05:32:40;44.05;;;19.90;;
4466;SDS011;2246;42.664;23.278;2023-02-15T05:35:06;48.33;;;20.08;;
4466;SDS011;2246;42.664;23.278;2023-02-15T05:37:32;41.55;;;19.83;;
4466;SDS011;2246;42.664;23.278;2023-02-15T05:39:58;40.70;;;19.17;;
4466;SDS011;2246;42.664;23.278;2023-02-15T05:42:25;43.58;;;20.13;;
4466;SDS011;2246;42.664;23.278;2023-02-15T05:44:51;38.60;;;18.45;;
4466;SDS011;2246;42.664;23.278;2023-02-15T05:47:17;43.97;;;19.05;;
4466;SDS011;2246;42.664;23.278;2023-02-15T05:49:43;43.13;;;19.88;;
4466;SDS011;2246;42.664;23.278;2023-02-15T05:52:09;43.42;;;19.83;;
4466;SDS011;2246;42.664;23.278;2023-02-15T05:57:02;41.17;;;18.98;;
4466;SDS011;2246;42.664;23.278;2023-02-15T05:59:29;43.88;;;18.88;;
4466;SDS011;2246;42.664;23.278;2023-02-15T06:01:55;38.85;;;17.50;;
4466;SDS011;2246;42.664;23.278;2023-02-15T06:04:21;36.75;;;17.67;;
4466;SDS011;2246;42.664;23.278;2023-02-15T06:06:47;40.17;;;18.75;;
4466;SDS011;2246;42.664;23.278;2023-02-15T06:09:13;38.58;;;17.35;;
4466;SDS011;2246;42.664;23.278;2023-02-15T06:11:39;37.88;;;16.60;;
4466;SDS011;2246;42.664;23.278;2023-02-15T06:14:05;45.88;;;19.17;;
4466;SDS011;2246;42.664;23.278;2023-02-15T06:16:31;38.90;;;17.88;;
4466;SDS011;2246;42.664;23.278;2023-02-15T06:18:57;38.95;;;17.95;;
4466;SDS011;2246;42.664;23.278;2023-02-15T06:21:24;41.50;;;17.98;;
4466;SDS011;2246;42.664;23.278;2023-02-15T06:23:50;37.63;;;17.73;;
4466;SDS011;2246;42.664;23.278;2023-02-15T06:26:16;39.08;;;17.20;;
4466;SDS011;2246;42.664;23.278;2023-02-15T06:28:42;38.60;;;16.90;;
4466;SDS011;2246;42.664;23.278;2023-02-15T06:31:08;36.85;;;16.70;;
4466;SDS011;2246;42.664;23.278;2023-02-15T06:33:34;39.80;;;17.52;;
4466;SDS011;2246;42.664;23.278;2023-02-15T06:36:00;44.05;;;17.63;;
4466;SDS011;2246;42.664;23.278;2023-02-15T06:38:26;37.67;;;17.63;;
4466;SDS011;2246;42.664;23.278;2023-02-15T06:40:52;42.17;;;18.48;;
4466;SDS011;2246;42.664;23.278;2023-02-15T06:43:18;37.65;;;16.80;;
4466;SDS011;2246;42.664;23.278;2023-02-15T06:45:45;45.60;;;17.80;;
4466;SDS011;2246;42.664;23.278;2023-02-15T06:48:11;41.15;;;18.55;;
4466;SDS011;2246;42.664;23.278;2023-02-15T06:50:37;40.28;;;18.25;;
4466;SDS011;2246;42.664;23.278;2023-02-15T06:53:03;40.53;;;17.23;;
4466;SDS011;2246;42.664;23.278;2023-02-15T06:55:29;33.95;;;15.77;;
4466;SDS011;2246;42.664;23.278;2023-02-15T06:57:55;35.88;;;17.58;;
4466;SDS011;2246;42.664;23.278;2023-02-15T07:00:21;35.42;;;16.88;;
4466;SDS011;2246;42.664;23.278;2023-02-15T07:02:52;34.15;;;15.68;;
4466;SDS011;2246;42.664;23.278;2023-02-15T07:05:20;33.42;;;16.65;;
4466;SDS011;2246;42.664;23.278;2023-02-15T07:07:46;33.08;;;15.65;;
4466;SDS011;2246;42.664;23.278;2023-02-15T07:10:12;35.05;;;15.75;;
4466;SDS011;2246;42.664;23.278;2023-02-15T07:12:38;35.45;;;15.27;;
4466;SDS011;2246;42.664;23.278;2023-02-15T07:15:08;40.70;;;16.20;;
4466;SDS011;2246;42.664;23.278;2023-02-15T07:17:35;34.00;;;14.98;;
4466;SDS011;2246;42.664;23.278;2023-02-15T07:20:05;35.67;;;15.93;;
4466;SDS011;2246;42.664;23.278;2023-02-15T07:22:32;35.95;;;14.00;;
4466;SDS011;2246;42.664;23.278;2023-02-15T07:25:00;33.95;;;14.75;;
4466;SDS011;2246;42.664;23.278;2023-02-15T07:27:27;34.30;;;16.88;;
4466;SDS011;2246;42.664;23.278;2023-02-15T07:29:53;29.90;;;14.15;;
4466;SDS011;2246;42.664;23.278;2023-02-15T07:32:19;38.47;;;16.25;;
4466;SDS011;2246;42.664;23.278;2023-02-15T07:34:45;35.13;;;15.23;;
4466;SDS011;2246;42.664;23.278;2023-02-15T07:37:11;32.67;;;14.90;;
4466;SDS011;2246;42.664;23.278;2023-02-15T07:39:37;36.28;;;16.05;;
4466;SDS011;2246;42.664;23.278;2023-02-15T07:42:03;43.20;;;17.95;;
4466;SDS011;2246;42.664;23.278;2023-02-15T07:44:30;37.53;;;17.20;;
4466;SDS011;2246;42.664;23.278;2023-02-15T07:46:56;32.45;;;16.00;;
4466;SDS011;2246;42.664;23.278;2023-02-15T07:49:22;32.83;;;15.65;;
4466;SDS011;2246;42.664;23.278;2023-02-15T07:51:48;33.10;;;16.45;;
4466;SDS011;2246;42.664;23.278;2023-02-15T07:54:14;34.13;;;14.95;;
4466;SDS011;2246;42.664;23.278;2023-02-15T07:56:40;29.00;;;14.82;;
4466;SDS011;2246;42.664;23.278;2023-02-15T07:59:06;29.85;;;14.25;;
4466;SDS011;2246;42.664;23.278;2023-02-15T08:01:37;28.40;;;14.18;;
4466;SDS011;2246;42.664;23.278;2023-02-15T08:04:04;31.48;;;14.80;;
4466;SDS011;2246;42.664;23.278;2023-02-15T08:06:32;32.75;;;15.93;;
4466;SDS011;2246;42.664;23.278;2023-02-15T08:08:58;33.13;;;14.65;;
4466;SDS011;2246;42.664;23.278;2023-02-15T08:11:26;26.98;;;12.52;;
4466;SDS011;2246;42.664;23.278;2023-02-15T08:14:00;40.42;;;16.08;;
4466;SDS011;2246;42.664;23.278;2023-02-15T08:16:33;33.03;;;14.85;;
4466;SDS011;2246;42.664;23.278;2023-02-15T08:19:01;37.22;;;15.43;;
4466;SDS011;2246;42.664;23.278;2023-02-15T08:21:28;28.38;;;13.38;;
4466;SDS011;2246;42.664;23.278;2023-02-15T08:23:55;52.35;;;18.85;;
4466;SDS011;2246;42.664;23.278;2023-02-15T08:26:21;89.97;;;24.95;;
4466;SDS011;2246;42.664;23.278;2023-02-15T08:28:47;39.67;;;15.63;;
4466;SDS011;2246;42.664;23.278;2023-02-15T08:31:15;49.40;;;17.33;;
4466;SDS011;2246;42.664;23.278;2023-02-15T08:33:42;37.67;;;15.23;;
4466;SDS011;2246;42.664;23.278;2023-02-15T08:36:09;31.08;;;15.38;;
4466;SDS011;2246;42.664;23.278;2023-02-15T08:38:36;34.50;;;15.23;;
4466;SDS011;2246;42.664;23.278;2023-02-15T08:41:14;29.00;;;13.80;;
4466;SDS011;2246;42.664;23.278;2023-02-15T08:43:40;36.42;;;14.13;;
4466;SDS011;2246;42.664;23.278;2023-02-15T08:46:06;35.90;;;15.77;;
4466;SDS011;2246;42.664;23.278;2023-02-15T08:48:33;27.13;;;13.60;;
4466;SDS011;2246;42.664;23.278;2023-02-15T08:51:03;32.92;;;15.73;;
4466;SDS011;2246;42.664;23.278;2023-02-15T08:53:30;43.33;;;18.25;;
4466;SDS011;2246;42.664;23.278;2023-02-15T08:55:56;52.30;;;20.88;;
4466;SDS011;2246;42.664;23.278;2023-02-15T08:58:22;46.88;;;19.00;;
4466;SDS011;2246;42.664;23.278;2023-02-15T09:00:49;32.47;;;15.07;;
4466;SDS011;2246;42.664;23.278;2023-02-15T09:03:15;28.35;;;14.63;;
4466;SDS011;2246;42.664;23.278;2023-02-15T09:05:41;33.67;;;15.55;;
4466;SDS011;2246;42.664;23.278;2023-02-15T09:08:07;26.80;;;13.43;;
4466;SDS011;2246;42.664;23.278;2023-02-15T09:10:33;32.10;;;14.98;;
4466;SDS011;2246;42.664;23.278;2023-02-15T09:12:59;31.52;;;14.65;;
4466;SDS011;2246;42.664;23.278;2023-02-15T09:15:25;35.65;;;15.07;;
4466;SDS011;2246;42.664;23.278;2023-02-15T09:17:51;31.58;;;15.05;;
4466;SDS011;2246;42.664;23.278;2023-02-15T09:20:17;35.20;;;16.08;;
4466;SDS011;2246;42.664;23.278;2023-02-15T09:22:43;33.85;;;16.27;;
4466;SDS011;2246;42.664;23.278;2023-02-15T09:25:09;37.92;;;17.52;;
4466;SDS011;2246;42.664;23.278;2023-02-15T09:27:38;40.08;;;16.05;;
4466;SDS011;2246;42.664;23.278;2023-02-15T09:30:05;30.13;;;15.48;;
4466;SDS011;2246;42.664;23.278;2023-02-15T09:32:31;36.72;;;16.58;;
4466;SDS011;2246;42.664;23.278;2023-02-15T09:34:57;36.00;;;16.02;;
4466;SDS011;2246;42.664;23.278;2023-02-15T09:37:23;32.45;;;15.20;;
4466;SDS011;2246;42.664;23.278;2023-02-15T09:39:49;37.97;;;16.83;;
4466;SDS011;2246;42.664;23.278;2023-02-15T09:58:05;28.48;;;14.80;;
4466;SDS011;2246;42.664;23.278;2023-02-15T10:08:30;33.08;;;16.25;;
4466;SDS011;2246;42.664;23.278;2023-02-15T10:19:33;38.67;;;15.35;;
4466;SDS011;2246;42.664;23.278;2023-02-15T10:26:59;31.95;;;14.88;;
4466;SDS011;2246;42.664;23.278;2023-02-15T10:29:31;31.25;;;15.68;;
4466;SDS011;2246;42.664;23.278;2023-02-15T10:49:56;33.35;;;16.17;;
4466;SDS011;2246;42.664;23.278;2023-02-15T10:52:32;37.47;;;17.23;;
4466;SDS011;2246;42.664;23.278;2023-02-15T11:00:20;35.15;;;16.90;;
4466;SDS011;2246;42.664;23.278;2023-02-15T11:07:46;37.90;;;18.25;;
4466;SDS011;2246;42.664;23.278;2023-02-15T11:12:39;37.10;;;17.25;;
4466;SDS011;2246;42.664;23.278;2023-02-15T11:20:37;32.97;;;16.70;;
4466;SDS011;2246;42.664;23.278;2023-02-15T11:23:08;35.30;;;16.45;;
4466;SDS011;2246;42.664;23.278;2023-02-15T11:25:40;33.42;;;16.52;;
4466;SDS011;2246;42.664;23.278;2023-02-15T11:28:09;30.48;;;15.65;;
4466;SDS011;2246;42.664;23.278;2023-02-15T11:30:43;35.13;;;16.02;;
4466;SDS011;2246;42.664;23.278;2023-02-15T11:36:31;31.27;;;15.07;;
4466;SDS011;2246;42.664;23.278;2023-02-15T11:38:56;33.17;;;16.40;;
4466;SDS011;2246;42.664;23.278;2023-02-15T11:41:28;33.67;;;16.33;;
4466;SDS011;2246;42.664;23.278;2023-02-15T11:46:21;32.90;;;14.93;;
4466;SDS011;2246;42.664;23.278;2023-02-15T11:48:47;33.95;;;16.48;;
4466;SDS011;2246;42.664;23.278;2023-02-15T11:51:14;28.55;;;14.95;;
4466;SDS011;2246;42.664;23.278;2023-02-15T11:53:41;31.63;;;15.65;;
4466;SDS011;2246;42.664;23.278;2023-02-15T11:56:18;31.10;;;15.80;;
4466;SDS011;2246;42.664;23.278;2023-02-15T11:58:50;33.55;;;17.38;;
4466;SDS011;2246;42.664;23.278;2023-02-15T12:01:23;36.10;;;16.45;;
4466;SDS011;2246;42.664;23.278;2023-02-15T12:03:51;32.75;;;15.82;;
4466;SDS011;2246;42.664;23.278;2023-02-15T12:06:22;34.40;;;17.75;;
4466;SDS011;2246;42.664;23.278;2023-02-15T12:08:51;35.38;;;16.17;;
4466;SDS011;2246;42.664;23.278;2023-02-15T12:11:20;31.40;;;16.60;;
4466;SDS011;2246;42.664;23.278;2023-02-15T12:16:21;36.35;;;16.98;;
4466;SDS011;2246;42.664;23.278;2023-02-15T12:18:47;39.33;;;18.45;;
4466;SDS011;2246;42.664;23.278;2023-02-15T12:21:15;38.00;;;17.85;;
4466;SDS011;2246;42.664;23.278;2023-02-15T12:23:43;38.72;;;15.80;;
4466;SDS011;2246;42.664;23.278;2023-02-15T12:26:12;28.35;;;14.57;;
4466;SDS011;2246;42.664;23.278;2023-02-15T12:28:40;28.88;;;15.43;;
4466;SDS011;2246;42.664;23.278;2023-02-15T12:31:10;36.97;;;17.85;;
4466;SDS011;2246;42.664;23.278;2023-02-15T12:33:45;31.83;;;16.42;;
4466;SDS011;2246;42.664;23.278;2023-02-15T12:36:12;35.08;;;18.25;;
4466;SDS011;2246;42.664;23.278;2023-02-15T12:38:40;37.65;;;18.75;;
4466;SDS011;2246;42.664;23.278;2023-02-15T12:41:23;43.67;;;19.10;;
4466;SDS011;2246;42.664;23.278;2023-02-15T12:46:30;35.38;;;17.58;;
4466;SDS011;2246;42.664;23.278;2023-02-15T12:51:42;33.85;;;17.27;;
4466;SDS011;2246;42.664;23.278;2023-02-15T12:56:43;40.20;;;16.05;;
4466;SDS011;2246;42.664;23.278;2023-02-15T12:59:10;34.17;;;16.55;;
4466;SDS011;2246;42.664;23.278;2023-02-15T13:01:40;35.17;;;16.02;;
4466;SDS011;2246;42.664;23.278;2023-02-15T13:04:15;35.97;;;16.80;;
4466;SDS011;2246;42.664;23.278;2023-02-15T13:06:48;39.92;;;16.90;;
4466;SDS011;2246;42.664;23.278;2023-02-15T13:09:20;39.45;;;17.48;;
4466;SDS011;2246;42.664;23.278;2023-02-15T13:11:49;38.38;;;16.80;;
4466;SDS011;2246;42.664;23.278;2023-02-15T13:14:16;37.25;;;18.13;;
4466;SDS011;2246;42.664;23.278;2023-02-15T13:16:44;34.38;;;16.88;;
4466;SDS011;2246;42.664;23.278;2023-02-15T13:19:18;32.97;;;16.20;;
4466;SDS011;2246;42.664;23.278;2023-02-15T13:21:50;40.72;;;17.67;;
4466;SDS011;2246;42.664;23.278;2023-02-15T13:24:27;32.45;;;17.75;;
4466;SDS011;2246;42.664;23.278;2023-02-15T13:26:55;33.78;;;17.33;;
4466;SDS011;2246;42.664;23.278;2023-02-15T13:29:22;37.65;;;18.42;;
4466;SDS011;2246;42.664;23.278;2023-02-15T13:31:50;36.55;;;17.15;;
4466;SDS011;2246;42.664;23.278;2023-02-15T13:34:36;35.20;;;17.63;;
4466;SDS011;2246;42.664;23.278;2023-02-15T13:47:22;39.45;;;16.98;;
4466;SDS011;2246;42.664;23.278;2023-02-15T13:52:38;35.17;;;17.00;;
4466;SDS011;2246;42.664;23.278;2023-02-15T13:57:53;34.83;;;17.15;;
4466;SDS011;2246;42.664;23.278;2023-02-15T14:13:43;36.58;;;17.05;;
4466;SDS011;2246;42.664;23.278;2023-02-15T14:16:20;39.35;;;18.10;;
4466;SDS011;2246;42.664;23.278;2023-02-15T14:21:18;35.92;;;17.90;;
4466;SDS011;2246;42.664;23.278;2023-02-15T14:26:47;38.25;;;18.77;;
4466;SDS011;2246;42.664;23.278;2023-02-15T14:32:04;34.75;;;17.40;;
4466;SDS011;2246;42.664;23.278;2023-02-15T14:34:51;33.22;;;16.92;;
4466;SDS011;2246;42.664;23.278;2023-02-15T14:37:20;37.40;;;17.52;;
4466;SDS011;2246;42.664;23.278;2023-02-15T14:42:48;36.17;;;17.35;;
4466;SDS011;2246;42.664;23.278;2023-02-15T14:45:39;33.90;;;17.35;;
4466;SDS011;2246;42.664;23.278;2023-02-15T14:50:49;40.83;;;18.92;;
4466;SDS011;2246;42.664;23.278;2023-02-15T14:53:17;34.42;;;17.58;;
4466;SDS011;2246;42.664;23.278;2023-02-15T14:55:47;39.60;;;18.80;;
4466;SDS011;2246;42.664;23.278;2023-02-15T14:58:13;43.55;;;18.55;;
4466;SDS011;2246;42.664;23.278;2023-02-15T15:00:39;40.30;;;18.65;;
4466;SDS011;2246;42.664;23.278;2023-02-15T15:03:18;37.08;;;17.85;;
4466;SDS011;2246;42.664;23.278;2023-02-15T15:05:47;47.60;;;19.10;;
4466;SDS011;2246;42.664;23.278;2023-02-15T15:08:33;47.15;;;19.77;;
4466;SDS011;2246;42.664;23.278;2023-02-15T15:11:43;38.20;;;18.95;;
4466;SDS011;2246;42.664;23.278;2023-02-15T15:13:52;38.72;;;19.00;;
4466;SDS011;2246;42.664;23.278;2023-02-15T15:17:01;44.72;;;19.90;;
4466;SDS011;2246;42.664;23.278;2023-02-15T15:19:11;38.20;;;18.30;;
4466;SDS011;2246;42.664;23.278;2023-02-15T15:29:45;40.80;;;19.70;;
4466;SDS011;2246;42.664;23.278;2023-02-15T15:32:11;42.00;;;19.45;;
4466;SDS011;2246;42.664;23.278;2023-02-15T15:43:04;45.20;;;20.63;;
4466;SDS011;2246;42.664;23.278;2023-02-15T15:50:34;42.33;;;20.88;;
4466;SDS011;2246;42.664;23.278;2023-02-15T15:53:04;40.90;;;20.00;;
4466;SDS011;2246;42.664;23.278;2023-02-15T15:55:31;45.38;;;21.08;;
4466;SDS011;2246;42.664;23.278;2023-02-15T15:58:00;43.05;;;21.58;;
4466;SDS011;2246;42.664;23.278;2023-02-15T16:00:31;50.97;;;22.73;;
4466;SDS011;2246;42.664;23.278;2023-02-15T16:02:58;41.22;;;20.63;;
4466;SDS011;2246;42.664;23.278;2023-02-15T16:05:24;49.10;;;22.23;;
4466;SDS011;2246;42.664;23.278;2023-02-15T16:07:50;44.97;;;20.30;;
4466;SDS011;2246;42.664;23.278;2023-02-15T16:10:21;44.45;;;21.50;;
4466;SDS011;2246;42.664;23.278;2023-02-15T16:12:47;45.83;;;21.35;;
4466;SDS011;2246;42.664;23.278;2023-02-15T16:15:19;44.92;;;20.33;;
4466;SDS011;2246;42.664;23.278;2023-02-15T16:17:47;43.70;;;21.00;;
4466;SDS011;2246;42.664;23.278;2023-02-15T16:20:18;44.78;;;20.98;;
4466;SDS011;2246;42.664;23.278;2023-02-15T16:22:46;38.85;;;19.77;;
4466;SDS011;2246;42.664;23.278;2023-02-15T16:25:35;43.80;;;20.87;;
4466;SDS011;2246;42.664;23.278;2023-02-15T16:28:07;42.72;;;21.63;;
4466;SDS011;2246;42.664;23.278;2023-02-15T16:30:35;44.72;;;21.38;;
4466;SDS011;2246;42.664;23.278;2023-02-15T16:35:34;49.60;;;21.33;;
4466;SDS011;2246;42.664;23.278;2023-02-15T16:38:00;47.47;;;21.20;;
4466;SDS011;2246;42.664;23.278;2023-02-15T16:40:48;51.38;;;22.60;;
4466;SDS011;2246;42.664;23.278;2023-02-15T16:43:14;44.05;;;20.60;;
4466;SDS011;2246;42.664;23.278;2023-02-15T16:45:41;50.80;;;23.08;;
4466;SDS011;2246;42.664;23.278;2023-02-15T16:48:12;51.53;;;23.52;;
4466;SDS011;2246;42.664;23.278;2023-02-15T16:50:39;48.38;;;22.35;;
4466;SDS011;2246;42.664;23.278;2023-02-15T16:53:06;52.03;;;23.95;;
4466;SDS011;2246;42.664;23.278;2023-02-15T16:55:39;52.17;;;22.80;;
4466;SDS011;2246;42.664;23.278;2023-02-15T17:00:36;45.47;;;20.90;;
4466;SDS011;2246;42.664;23.278;2023-02-15T17:03:03;54.45;;;22.60;;
4466;SDS011;2246;42.664;23.278;2023-02-15T17:05:40;49.80;;;22.83;;
4466;SDS011;2246;42.664;23.278;2023-02-15T17:10:44;43.95;;;21.02;;
4466;SDS011;2246;42.664;23.278;2023-02-15T17:13:12;42.03;;;21.45;;
4466;SDS011;2246;42.664;23.278;2023-02-15T17:15:44;48.13;;;21.90;;
4466;SDS011;2246;42.664;23.278;2023-02-15T17:18:31;42.45;;;21.58;;
4466;SDS011;2246;42.664;23.278;2023-02-15T17:21:01;48.45;;;22.88;;
4466;SDS011;2246;42.664;23.278;2023-02-15T17:23:40;129.35;;;50.20;;
4466;SDS011;2246;42.664;23.278;2023-02-15T17:28:44;47.92;;;23.60;;
4466;SDS011;2246;42.664;23.278;2023-02-15T17:31:12;52.65;;;23.67;;
4466;SDS011;2246;42.664;23.278;2023-02-15T17:33:39;50.10;;;22.80;;
4466;SDS011;2246;42.664;23.278;2023-02-15T17:36:09;52.75;;;23.25;;
4466;SDS011;2246;42.664;23.278;2023-02-15T17:38:37;40.95;;;21.02;;
4466;SDS011;2246;42.664;23.278;2023-02-15T17:41:04;46.42;;;22.30;;
4466;SDS011;2246;42.664;23.278;2023-02-15T17:43:30;44.50;;;21.92;;
4466;SDS011;2246;42.664;23.278;2023-02-15T17:45:56;47.88;;;20.88;;
4466;SDS011;2246;42.664;23.278;2023-02-15T17:50:49;46.92;;;20.85;;
4466;SDS011;2246;42.664;23.278;2023-02-15T17:53:16;45.55;;;20.50;;
4466;SDS011;2246;42.664;23.278;2023-02-15T17:55:43;34.03;;;15.07;;
4466;SDS011;2246;42.664;23.278;2023-02-15T17:58:10;41.67;;;19.52;;
4466;SDS011;2246;42.664;23.278;2023-02-15T18:00:46;42.13;;;18.85;;
4466;SDS011;2246;42.664;23.278;2023-02-15T18:03:43;40.95;;;18.80;;
4466;SDS011;2246;42.664;23.278;2023-02-15T18:06:28;36.53;;;17.25;;
4466;SDS011;2246;42.664;23.278;2023-02-15T18:09:14;41.05;;;17.83;;